Time;durP1;ratioP1;P1;durP2;ratioP2;P2;SDS_P1;SDS_P2;PMS_P1;PMS_P2;Temp;Humidity;BMP_temperature;BMP_pressure;BME280_temperature;BME280_humidity;BME280_pressure;Samples;Min_cycle;Max_cycle;Signal;HPM_P1;HPM_P2
2022/06/23 00:00:33;;;;;;;2.00;1.80;;;27.60;53.10;;;;;;4977737;28;20417;-72
2022/06/23 00:03:03;;;;;;;2.40;2.20;;;27.60;53.00;;;;;;4977929;28;20470;-72
2022/06/23 00:05:37;;;;;;;3.73;2.40;;;27.60;53.00;;;;;;4960474;28;20406;-72
2022/06/23 00:08:14;;;;;;;2.40;1.80;;;27.60;53.10;;;;;;4960029;28;20488;-72
2022/06/23 00:10:46;;;;;;;2.50;1.97;;;27.50;53.00;;;;;;4960371;28;20481;-72
2022/06/23 00:13:14;;;;;;;2.60;2.13;;;27.50;53.10;;;;;;4944622;28;20453;-72
2022/06/23 00:15:44;;;;;;;3.80;2.20;;;27.50;53.10;;;;;;4944482;28;20454;-72
2022/06/23 00:18:21;;;;;;;2.20;2.00;;;27.50;53.10;;;;;;4960749;28;20410;-72
2022/06/23 00:21:02;;;;;;;2.50;2.07;;;27.50;53.10;;;;;;4969138;28;20426;-72
2022/06/23 00:23:33;;;;;;;2.40;2.20;;;27.40;53.00;;;;;;4977923;28;20413;-72
2022/06/23 00:26:15;;;;;;;2.73;2.00;;;27.40;53.00;;;;;;4977380;28;20394;-72
2022/06/23 00:29:02;;;;;;;2.37;2.17;;;27.40;53.00;;;;;;4977190;28;20448;-72
2022/06/23 00:31:32;;;;;;;3.17;1.97;;;27.40;53.10;;;;;;4960260;28;20453;-72
2022/06/23 00:34:05;;;;;;;4.10;2.50;;;27.40;53.20;;;;;;4959960;28;20407;-72
2022/06/23 00:36:51;;;;;;;2.43;2.23;;;27.40;53.20;;;;;;4944030;28;20460;-72
2022/06/23 00:39:23;;;;;;;2.27;2.10;;;27.30;53.20;;;;;;4944490;28;20944;-72
2022/06/23 00:41:52;;;;;;;2.30;2.10;;;27.30;53.20;;;;;;4977176;28;20438;-72
2022/06/23 00:44:31;;;;;;;2.10;1.83;;;27.30;53.10;;;;;;4976845;28;20445;-72
2022/06/23 00:47:03;;;;;;;2.13;2.03;;;27.30;53.80;;;;;;4959912;28;20538;-72
2022/06/23 00:49:47;;;;;;;2.10;1.90;;;27.30;53.30;;;;;;4976117;28;20465;-72
2022/06/23 00:52:29;;;;;;;1.97;1.87;;;27.30;53.30;;;;;;4959675;28;20457;-72
2022/06/23 00:54:59;;;;;;;4.10;2.17;;;27.20;53.30;;;;;;4943940;28;20434;-73
2022/06/23 00:57:40;;;;;;;2.60;2.40;;;27.20;53.30;;;;;;4976836;28;20402;-72
2022/06/23 01:00:20;;;;;;;2.33;2.13;;;27.10;53.30;;;;;;4959818;28;20414;-72
2022/06/23 01:03:03;;;;;;;2.47;1.90;;;27.10;53.30;;;;;;4976782;28;20935;-72
2022/06/23 01:06:03;;;;;;;2.60;2.27;;;27.10;53.30;;;;;;4959447;28;20458;-72
2022/06/23 01:08:52;;;;;;;2.63;2.37;;;27.10;53.40;;;;;;4923878;28;20466;-72
2022/06/23 01:11:55;;;;;;;2.53;2.33;;;27.10;53.40;;;;;;4943261;28;20457;-72
2022/06/23 01:14:30;;;;;;;3.53;2.37;;;27.10;53.50;;;;;;4942803;28;20434;-72
2022/06/23 01:17:08;;;;;;;2.00;1.90;;;27.00;53.50;;;;;;4959195;28;20424;-72
2022/06/23 01:20:06;;;;;;;2.90;2.20;;;27.00;53.50;;;;;;4959205;28;20907;-72
2022/06/23 01:22:38;;;;;;;2.87;2.30;;;27.00;53.60;;;;;;4959133;28;20545;-72
2022/06/23 01:25:39;;;;;;;2.23;2.03;;;27.00;53.60;;;;;;4943695;28;20805;-72
2022/06/23 01:28:19;;;;;;;2.40;2.20;;;27.00;53.60;;;;;;4976113;28;20461;-72
2022/06/23 01:30:57;;;;;;;2.40;2.20;;;27.00;53.70;;;;;;4943313;28;20410;-72
2022/06/23 01:34:03;;;;;;;2.37;2.17;;;26.90;53.70;;;;;;4959022;28;20507;-72
2022/06/23 01:36:41;;;;;;;2.10;2.00;;;26.90;53.70;;;;;;4863658;29;20793;-72
2022/06/23 01:39:24;;;;;;;2.30;2.10;;;26.90;53.80;;;;;;4931865;28;20957;-72
2022/06/23 01:42:15;;;;;;;2.50;2.30;;;26.90;53.80;;;;;;4958953;28;20997;-72
2022/06/23 01:45:06;;;;;;;3.17;2.20;;;26.80;53.80;;;;;;4942770;28;20442;-72
2022/06/23 01:47:50;;;;;;;3.23;2.43;;;26.80;53.80;;;;;;4975901;28;20840;-72
2022/06/23 01:50:30;;;;;;;2.57;2.23;;;26.80;53.80;;;;;;4976012;28;20414;-72
2022/06/23 01:53:16;;;;;;;2.83;2.03;;;26.80;53.90;;;;;;4975654;28;20457;-72
2022/06/23 01:56:26;;;;;;;4.73;2.37;;;26.70;53.80;;;;;;4942896;28;20403;-72
2022/06/23 01:59:26;;;;;;;2.40;2.20;;;26.70;53.90;;;;;;4927642;28;20807;-72
2022/06/23 02:02:14;;;;;;;2.40;2.20;;;26.70;54.00;;;;;;4922963;28;20449;-72
2022/06/23 02:05:11;;;;;;;2.33;2.10;;;26.60;54.00;;;;;;4958428;28;20442;-72
2022/06/23 02:07:39;;;;;;;2.63;2.40;;;26.60;54.00;;;;;;4942124;28;21066;-72
2022/06/23 02:10:35;;;;;;;2.13;2.03;;;26.60;54.00;;;;;;4975455;28;20517;-72
2022/06/23 02:13:14;;;;;;;2.83;2.63;;;26.60;54.10;;;;;;4942118;28;20961;-72
2022/06/23 02:15:52;;;;;;;3.07;2.77;;;26.60;54.10;;;;;;4957972;28;20434;-72
2022/06/23 02:18:40;;;;;;;2.63;2.10;;;26.60;54.20;;;;;;4942276;28;20432;-72
2022/06/23 02:21:45;;;;;;;2.53;2.30;;;26.60;54.20;;;;;;4927133;28;20441;-72
2022/06/23 02:24:31;;;;;;;2.67;2.40;;;26.50;54.20;;;;;;4975110;28;20410;-72
2022/06/23 02:27:37;;;;;;;2.50;2.30;;;26.50;54.20;;;;;;4958155;28;20500;-72
2022/06/23 02:30:24;;;;;;;2.70;2.50;;;26.50;54.30;;;;;;4975240;28;20454;-72
2022/06/23 02:33:13;;;;;;;2.23;1.93;;;26.40;54.30;;;;;;4941843;28;20468;-72
2022/06/23 02:36:07;;;;;;;4.33;2.40;;;26.40;54.40;;;;;;4958356;28;20431;-72
2022/06/23 02:38:40;;;;;;;3.20;2.33;;;26.40;54.40;;;;;;4957758;28;20962;-73
2022/06/23 02:41:31;;;;;;;2.80;2.50;;;26.40;54.50;;;;;;4958564;28;20410;-73
2022/06/23 02:44:13;;;;;;;4.00;2.40;;;26.40;54.50;;;;;;4957629;28;20469;-73
2022/06/23 02:47:04;;;;;;;2.67;2.47;;;26.30;54.50;;;;;;4975133;28;20784;-73
2022/06/23 02:50:19;;;;;;;2.30;2.10;;;26.30;54.50;;;;;;4957440;28;20501;-73
2022/06/23 02:53:19;;;;;;;2.20;2.00;;;26.30;54.60;;;;;;4877838;29;20541;-73
2022/06/23 02:56:02;;;;;;;2.90;2.27;;;26.30;54.60;;;;;;4877839;29;20990;-73
2022/06/23 02:58:42;;;;;;;3.00;2.23;;;26.20;54.60;;;;;;4932079;28;20515;-73
2022/06/23 03:01:52;;;;;;;2.53;2.33;;;26.20;54.70;;;;;;4957334;28;20468;-74
2022/06/23 03:04:30;;;;;;;3.10;2.30;;;26.20;54.80;;;;;;4946558;28;20430;-71
2022/06/23 03:07:35;;;;;;;2.60;2.33;;;26.20;54.80;;;;;;4957434;28;20823;-71
2022/06/23 03:10:18;;;;;;;2.87;2.63;;;26.20;54.90;;;;;;4936564;28;20476;-69
2022/06/23 03:13:12;;;;;;;3.20;2.50;;;26.10;54.90;;;;;;4957007;28;20448;-70
2022/06/23 03:15:53;;;;;;;2.33;2.13;;;26.10;54.90;;;;;;4961384;28;20431;-69
2022/06/23 03:18:28;;;;;;;2.37;2.20;;;26.10;55.00;;;;;;4974174;28;20426;-71
2022/06/23 03:21:00;;;;;;;2.47;2.27;;;26.10;55.10;;;;;;4957154;28;20418;-72
2022/06/23 03:23:38;;;;;;;3.00;2.80;;;26.10;55.10;;;;;;4941095;28;20399;-75
2022/06/23 03:26:26;;;;;;;2.50;2.30;;;26.10;55.20;;;;;;4956853;28;20433;-69
2022/06/23 03:29:03;;;;;;;2.70;2.40;;;26.00;55.20;;;;;;4940676;28;20520;-69
2022/06/23 03:32:01;;;;;;;2.57;2.37;;;26.00;55.20;;;;;;4973852;28;20879;-69
2022/06/23 03:34:43;;;;;;;4.80;2.50;;;26.00;55.30;;;;;;4967280;28;20433;-72
2022/06/23 03:37:12;;;;;;;2.70;2.03;;;26.00;55.40;;;;;;4974218;28;20892;-70
2022/06/23 03:42:50;;;;;;;2.50;2.30;;;25.90;55.40;;;;;;4957014;28;20991;-72
2022/06/23 03:45:22;;;;;;;4.97;2.83;;;25.90;55.40;;;;;;4941236;28;20500;-70
2022/06/23 03:47:56;;;;;;;2.93;2.60;;;25.90;55.50;;;;;;4974168;28;20446;-72
2022/06/23 03:50:43;;;;;;;2.70;2.50;;;25.90;55.60;;;;;;4925397;28;20887;-72
2022/06/23 03:53:23;;;;;;;2.97;2.63;;;25.90;55.60;;;;;;4941101;28;20453;-72
2022/06/23 03:56:00;;;;;;;4.67;2.70;;;25.80;55.60;;;;;;4974097;28;20386;-72
2022/06/23 03:58:47;;;;;;;2.70;2.50;;;25.80;55.60;;;;;;4941085;28;20949;-72
2022/06/23 04:01:15;;;;;;;2.87;2.63;;;25.80;55.70;;;;;;4956933;28;20460;-72
2022/06/23 04:03:54;;;;;;;2.83;2.63;;;25.80;55.70;;;;;;4957073;28;20445;-71
2022/06/23 04:06:22;;;;;;;2.90;2.63;;;25.80;56.30;;;;;;4974001;28;20463;-71
2022/06/23 04:09:24;;;;;;;2.80;2.60;;;25.70;55.80;;;;;;4940818;28;20531;-71
2022/06/23 04:11:53;;;;;;;3.37;2.70;;;25.70;55.80;;;;;;4956831;28;20841;-71
2022/06/23 04:14:32;;;;;;;2.83;2.50;;;25.70;55.90;;;;;;4940920;28;20440;-71
2022/06/23 04:17:13;;;;;;;2.67;2.47;;;25.70;56.00;;;;;;4925067;28;20904;-71
2022/06/23 04:19:47;;;;;;;2.90;2.70;;;25.70;56.00;;;;;;4940731;28;20461;-71
2022/06/23 04:22:38;;;;;;;3.63;3.17;;;25.70;56.20;;;;;;4956537;28;20524;-71
2022/06/23 04:25:07;;;;;;;2.83;2.63;;;25.60;56.10;;;;;;4944151;28;20947;-71
2022/06/23 04:27:40;;;;;;;3.03;2.83;;;25.60;56.10;;;;;;4944129;28;20907;-71
2022/06/23 04:30:37;;;;;;;3.53;2.80;;;25.60;56.20;;;;;;4960189;28;20418;-71
2022/06/23 04:33:06;;;;;;;4.00;2.00;;;25.60;56.20;;;;;;4959554;28;20484;-71
2022/06/23 04:35:38;;;;;;;2.93;2.67;;;25.50;56.20;;;;;;4928614;28;20438;-71
2022/06/23 04:38:08;;;;;;;3.10;2.53;;;25.60;56.40;;;;;;4944144;28;20415;-71
2022/06/23 04:40:45;;;;;;;3.10;2.80;;;25.50;56.40;;;;;;4977208;28;20394;-71
2022/06/23 04:43:14;;;;;;;3.03;2.73;;;25.50;56.40;;;;;;4943554;28;20475;-71
2022/06/23 04:46:02;;;;;;;3.00;2.70;;;25.50;56.50;;;;;;4944091;28;20429;-71
2022/06/23 04:48:37;;;;;;;2.77;2.57;;;25.50;56.60;;;;;;4928059;28;20452;-71
2022/06/23 04:51:22;;;;;;;3.57;3.03;;;25.50;56.60;;;;;;4976984;28;20444;-71
2022/06/23 04:53:55;;;;;;;3.17;2.57;;;25.50;56.70;;;;;;4943928;28;20402;-72
2022/06/23 04:56:42;;;;;;;4.47;2.80;;;25.40;56.70;;;;;;4976844;28;20445;-70
2022/06/23 04:59:17;;;;;;;3.00;2.80;;;25.40;56.80;;;;;;4976898;28;20912;-71
2022/06/23 05:01:54;;;;;;;3.03;2.60;;;25.40;56.90;;;;;;4959568;28;20436;-71
2022/06/23 05:04:26;;;;;;;3.60;2.87;;;25.40;56.90;;;;;;4976887;28;20443;-71
2022/06/23 05:06:57;;;;;;;3.30;3.00;;;25.40;57.00;;;;;;4959371;28;20431;-71
2022/06/23 05:09:26;;;;;;;3.33;3.03;;;25.40;57.10;;;;;;4976177;28;20960;-71
2022/06/23 05:12:16;;;;;;;2.87;2.47;;;25.40;57.20;;;;;;4959701;28;20469;-71
2022/06/23 05:15:10;;;;;;;2.60;2.40;;;25.30;57.20;;;;;;4943658;28;20454;-71
2022/06/23 05:17:48;;;;;;;3.13;2.67;;;25.30;57.80;;;;;;4958807;28;20418;-71
2022/06/23 05:20:20;;;;;;;3.10;2.60;;;25.30;57.30;;;;;;4959339;28;20520;-71
2022/06/23 05:22:48;;;;;;;3.33;3.03;;;25.30;57.40;;;;;;4959139;28;20444;-71
2022/06/23 05:25:43;;;;;;;3.10;2.80;;;25.30;57.50;;;;;;4976203;28;20400;-71
2022/06/23 05:28:30;;;;;;;3.00;2.70;;;25.30;57.60;;;;;;4976212;28;20445;-71
2022/06/23 05:31:06;;;;;;;5.40;2.70;;;25.30;57.70;;;;;;4959072;28;20409;-71
2022/06/23 05:33:41;;;;;;;3.63;2.93;;;25.30;57.70;;;;;;4942857;28;20418;-71
2022/06/23 05:36:20;;;;;;;3.87;2.90;;;25.30;57.80;;;;;;4958864;28;20410;-71
2022/06/23 05:39:00;;;;;;;5.43;3.70;;;25.30;57.80;;;;;;4958703;28;20461;-70
2022/06/23 05:41:40;;;;;;;3.50;3.20;;;25.20;57.90;;;;;;4942918;28;20444;-69
2022/06/23 05:44:16;;;;;;;3.80;2.80;;;25.20;58.00;;;;;;4926093;28;20433;-69
2022/06/23 05:46:47;;;;;;;3.53;2.73;;;25.20;58.10;;;;;;4943018;28;20900;-69
2022/06/23 05:49:23;;;;;;;4.70;2.80;;;25.20;58.10;;;;;;4958653;28;20439;-69
2022/06/23 05:52:00;;;;;;;3.80;2.67;;;25.20;58.20;;;;;;4957857;28;20442;-70
2022/06/23 05:54:40;;;;;;;3.27;2.90;;;25.20;58.20;;;;;;4958597;28;20409;-69
2022/06/23 05:57:33;;;;;;;3.53;2.73;;;25.20;58.30;;;;;;4958713;28;20441;-69
2022/06/23 06:00:14;;;;;;;2.77;2.57;;;25.20;58.30;;;;;;4958744;28;20426;-69
2022/06/23 06:03:01;;;;;;;2.67;2.47;;;25.20;58.40;;;;;;4975537;28;20429;-69
2022/06/23 06:05:42;;;;;;;3.20;2.90;;;25.20;58.50;;;;;;4958390;28;20401;-69
2022/06/23 06:08:18;;;;;;;3.00;2.80;;;25.20;58.50;;;;;;4942478;28;20883;-69
2022/06/23 06:10:47;;;;;;;3.37;2.87;;;25.20;58.50;;;;;;4942490;28;20922;-69
2022/06/23 06:13:18;;;;;;;3.87;2.60;;;25.20;59.10;;;;;;4958178;28;20436;-69
2022/06/23 06:15:52;;;;;;;3.00;2.50;;;25.20;58.50;;;;;;4942279;28;20425;-69
2022/06/23 06:18:18;;;;;;;3.20;2.80;;;25.20;58.50;;;;;;4958117;28;20407;-69
2022/06/23 06:20:44;;;;;;;2.80;2.60;;;25.20;58.60;;;;;;4975259;28;20542;-69
2022/06/23 06:23:22;;;;;;;3.33;3.03;;;25.20;58.50;;;;;;4975196;28;20202;-69
2022/06/23 06:25:50;;;;;;;4.70;2.80;;;25.20;58.50;;;;;;4975200;28;20406;-69
2022/06/23 06:28:27;;;;;;;3.60;3.30;;;25.20;58.50;;;;;;4958015;28;20880;-69
2022/06/23 06:31:26;;;;;;;3.53;3.23;;;25.20;58.50;;;;;;4958012;28;20403;-69
2022/06/23 06:33:59;;;;;;;3.30;3.00;;;25.20;58.50;;;;;;4956244;28;20433;-69
2022/06/23 06:36:40;;;;;;;2.90;2.70;;;25.20;58.50;;;;;;4957837;28;20454;-69
2022/06/23 06:39:17;;;;;;;5.03;3.30;;;25.20;58.60;;;;;;4957904;28;20427;-69
2022/06/23 06:41:52;;;;;;;4.53;3.33;;;25.20;58.70;;;;;;4975015;28;20448;-69
2022/06/23 06:44:18;;;;;;;6.97;3.50;;;25.20;58.60;;;;;;4957686;28;20436;-69
2022/06/23 06:46:47;;;;;;;3.10;2.80;;;25.20;58.60;;;;;;4974351;28;20414;-69
2022/06/23 06:49:21;;;;;;;3.37;3.07;;;25.20;58.70;;;;;;4941890;28;20484;-71
2022/06/23 06:51:50;;;;;;;3.10;2.80;;;25.20;58.70;;;;;;4957616;28;20947;-71
2022/06/23 06:54:24;;;;;;;3.27;2.90;;;25.20;58.60;;;;;;4941467;28;20410;-71
2022/06/23 06:56:55;;;;;;;3.50;3.20;;;25.20;58.60;;;;;;4957485;28;20444;-71
2022/06/23 06:59:46;;;;;;;3.80;3.20;;;25.20;58.50;;;;;;4957370;28;20434;-71
2022/06/23 07:02:24;;;;;;;3.80;3.30;;;25.20;58.50;;;;;;4974654;28;20469;-71
2022/06/23 07:05:02;;;;;;;3.73;3.43;;;25.20;58.40;;;;;;4957409;28;20430;-71
2022/06/23 07:07:40;;;;;;;2.90;2.70;;;25.30;58.40;;;;;;4942426;28;20837;-71
2022/06/23 07:10:18;;;;;;;3.47;3.17;;;25.20;58.40;;;;;;4957540;28;20409;-71
2022/06/23 07:12:56;;;;;;;4.40;3.53;;;25.30;58.60;;;;;;4957383;28;20445;-71
2022/06/23 07:15:37;;;;;;;3.63;3.33;;;25.30;58.70;;;;;;4957184;28;20426;-71
2022/06/23 07:18:29;;;;;;;3.70;3.20;;;25.30;58.80;;;;;;4957524;28;20482;-71
2022/06/23 07:21:10;;;;;;;3.90;3.50;;;25.30;58.90;;;;;;4956917;28;20443;-71
2022/06/23 07:23:54;;;;;;;4.00;3.70;;;25.30;59.20;;;;;;4941200;28;20451;-71
2022/06/23 07:26:32;;;;;;;3.63;3.33;;;25.30;59.40;;;;;;4957163;28;20426;-71
2022/06/23 07:29:29;;;;;;;5.27;3.73;;;25.40;59.60;;;;;;4957011;28;20465;-71
2022/06/23 07:32:04;;;;;;;3.90;3.30;;;25.40;59.80;;;;;;4957000;28;20827;-71
2022/06/23 07:34:36;;;;;;;3.47;3.17;;;25.40;60.00;;;;;;4974285;28;20432;-71
2022/06/23 07:37:18;;;;;;;5.13;3.30;;;25.40;60.00;;;;;;4957253;28;20497;-71
2022/06/23 07:39:47;;;;;;;3.97;3.67;;;25.40;60.10;;;;;;4974342;28;20446;-71
2022/06/23 07:42:16;;;;;;;3.87;3.20;;;25.40;60.30;;;;;;4957118;28;20494;-71
2022/06/23 07:44:52;;;;;;;4.40;4.00;;;25.50;60.40;;;;;;4974429;28;20442;-71
2022/06/23 07:47:20;;;;;;;4.07;3.30;;;25.50;60.60;;;;;;4957315;28;20439;-71
2022/06/23 07:49:46;;;;;;;3.77;3.47;;;25.50;60.60;;;;;;4974150;28;20515;-71
2022/06/23 07:52:20;;;;;;;5.57;3.50;;;25.60;60.80;;;;;;4956745;28;20524;-71
2022/06/23 07:54:49;;;;;;;4.57;4.07;;;25.60;61.00;;;;;;4974179;28;20394;-71
2022/06/23 07:57:18;;;;;;;4.03;3.70;;;25.60;61.20;;;;;;4958017;28;20394;-71
2022/06/23 07:59:58;;;;;;;7.00;3.87;;;25.60;61.10;;;;;;4944738;28;20475;-71
2022/06/23 08:02:38;;;;;;;4.07;3.30;;;25.70;61.30;;;;;;4960627;28;20444;-71
2022/06/23 08:05:42;;;;;;;5.10;4.00;;;25.70;61.40;;;;;;4960522;28;20923;-71
2022/06/23 08:08:15;;;;;;;6.50;4.17;;;25.70;61.30;;;;;;4977820;28;20811;-71
2022/06/23 08:10:41;;;;;;;4.10;3.70;;;25.70;61.50;;;;;;4977673;28;20525;-71
2022/06/23 08:13:17;;;;;;;4.53;4.13;;;25.80;61.60;;;;;;4944478;28;20430;-71
2022/06/23 08:18:49;;;;;;;6.37;3.70;;;25.80;61.90;;;;;;4977506;28;20445;-71
2022/06/23 08:21:33;;;;;;;3.90;3.60;;;25.90;62.00;;;;;;4960187;28;20424;-71
2022/06/23 08:24:23;;;;;;;5.70;4.43;;;25.90;62.20;;;;;;4960476;28;20454;-71
2022/06/23 08:26:58;;;;;;;8.87;4.10;;;25.90;62.30;;;;;;4944260;28;20425;-71
2022/06/23 08:29:29;;;;;;;9.30;4.53;;;25.90;62.30;;;;;;4960043;28;20886;-72
2022/06/23 08:31:58;;;;;;;4.10;3.63;;;26.00;62.50;;;;;;4944253;28;20450;-72
2022/06/23 08:34:31;;;;;;;4.50;3.83;;;26.00;62.60;;;;;;4977385;28;20427;-72
2022/06/23 08:37:07;;;;;;;6.20;4.43;;;26.00;62.60;;;;;;4960000;28;20411;-71
2022/06/23 08:40:24;;;;;;;5.20;4.70;;;26.00;62.70;;;;;;4944181;28;20966;-71
2022/06/23 08:42:57;;;;;;;4.30;3.73;;;26.10;63.60;;;;;;4955376;28;20458;-71
2022/06/23 08:46:05;;;;;;;4.70;4.13;;;26.10;63.20;;;;;;4977044;28;20826;-71
2022/06/23 08:49:02;;;;;;;5.40;4.90;;;26.10;63.10;;;;;;4959870;28;20446;-71
2022/06/23 08:51:59;;;;;;;5.83;4.27;;;26.20;63.30;;;;;;4959658;28;20536;-71
2022/06/23 08:54:59;;;;;;;5.90;5.40;;;26.20;63.40;;;;;;4959868;28;20976;-72
2022/06/23 08:57:50;;;;;;;6.40;5.00;;;26.30;63.50;;;;;;4959695;28;20405;-71
2022/06/23 09:00:29;;;;;;;5.10;4.70;;;26.30;63.70;;;;;;4978806;28;20773;-71
2022/06/23 09:03:26;;;;;;;5.90;4.80;;;26.30;63.80;;;;;;4962708;28;20472;-71
2022/06/23 09:05:58;;;;;;;5.77;5.10;;;26.40;63.70;;;;;;4914994;28;20962;-71
2022/06/23 09:08:49;;;;;;;8.67;5.00;;;26.40;63.70;;;;;;4946652;28;20871;-71
2022/06/23 09:11:46;;;;;;;5.80;4.63;;;26.50;63.90;;;;;;4978604;28;20416;-71
2022/06/23 09:14:29;;;;;;;4.97;4.43;;;26.50;63.70;;;;;;4950741;28;20935;-72
2022/06/23 09:17:07;;;;;;;5.53;5.03;;;26.50;63.80;;;;;;4959274;28;20928;-71
2022/06/23 09:19:50;;;;;;;5.07;4.57;;;26.60;63.80;;;;;;4959682;28;20489;-72
2022/06/23 09:22:53;;;;;;;5.23;4.73;;;26.60;63.50;;;;;;4976738;28;20947;-72
2022/06/23 09:26:10;;;;;;;5.37;4.80;;;26.70;63.60;;;;;;4959263;28;20436;-72
2022/06/23 09:28:57;;;;;;;7.40;4.77;;;26.70;63.50;;;;;;4936074;28;20470;-72
2022/06/23 09:31:52;;;;;;;5.43;4.97;;;26.70;63.30;;;;;;4943383;28;20450;-72
2022/06/23 09:34:33;;;;;;;4.87;4.50;;;26.70;63.20;;;;;;4959120;28;20482;-72
2022/06/23 09:37:21;;;;;;;5.67;5.10;;;26.80;63.20;;;;;;4943121;28;20798;-71
2022/06/23 09:40:05;;;;;;;5.90;5.40;;;26.80;63.10;;;;;;4927217;28;20900;-72
2022/06/23 09:43:13;;;;;;;6.37;5.63;;;26.90;63.10;;;;;;4958028;28;20437;-72
2022/06/23 09:46:13;;;;;;;4.97;4.57;;;26.90;63.00;;;;;;4975895;28;20438;-72
2022/06/23 09:49:04;;;;;;;5.57;4.97;;;27.00;63.00;;;;;;4958654;28;20450;-71
2022/06/23 09:51:44;;;;;;;4.80;4.40;;;27.00;62.90;;;;;;4943013;28;20510;-72
2022/06/23 09:54:23;;;;;;;5.33;4.80;;;27.00;62.90;;;;;;4975785;28;20444;-72
2022/06/23 09:57:24;;;;;;;5.10;4.60;;;27.10;62.80;;;;;;4943017;28;20413;-72
2022/06/23 10:00:02;;;;;;;5.40;4.90;;;27.10;62.70;;;;;;4975769;28;20430;-71
2022/06/23 10:02:33;;;;;;;5.50;5.10;;;27.20;62.60;;;;;;4975562;28;20935;-71
2022/06/23 10:05:20;;;;;;;5.67;5.17;;;27.20;62.50;;;;;;4958447;28;20497;-71
2022/06/23 10:08:05;;;;;;;5.27;4.77;;;27.30;62.50;;;;;;4942501;28;20493;-71
2022/06/23 10:10:31;;;;;;;5.20;4.60;;;27.30;62.30;;;;;;4942612;28;20434;-71
2022/06/23 10:13:18;;;;;;;7.10;4.63;;;27.40;62.30;;;;;;4958218;28;20437;-71
2022/06/23 10:16:12;;;;;;;7.60;4.70;;;27.40;62.20;;;;;;4958242;28;20500;-71
2022/06/23 10:18:50;;;;;;;6.13;4.50;;;27.50;62.20;;;;;;4975516;28;20812;-72
2022/06/23 10:21:54;;;;;;;5.40;5.00;;;27.50;62.00;;;;;;4957173;28;20946;-71
2022/06/23 10:24:44;;;;;;;5.00;4.60;;;27.60;62.00;;;;;;4942362;28;20429;-71
2022/06/23 10:27:46;;;;;;;6.07;5.50;;;27.60;61.90;;;;;;4975329;28;20406;-71
2022/06/23 10:30:18;;;;;;;5.60;5.10;;;27.70;61.90;;;;;;4898506;28;20485;-71
2022/06/23 10:33:37;;;;;;;5.60;5.10;;;27.70;61.80;;;;;;4975246;28;20950;-72
2022/06/23 10:36:15;;;;;;;5.80;5.10;;;27.80;61.80;;;;;;4939113;28;20419;-71
2022/06/23 10:39:02;;;;;;;6.17;5.57;;;27.80;61.60;;;;;;4957955;28;20406;-71
2022/06/23 10:41:55;;;;;;;6.10;5.60;;;27.90;61.70;;;;;;4957886;28;20434;-72
2022/06/23 10:44:33;;;;;;;5.50;5.10;;;27.90;61.60;;;;;;4957547;28;20478;-71
2022/06/23 10:47:02;;;;;;;5.70;5.20;;;27.90;61.60;;;;;;4957607;28;20417;-71
2022/06/23 10:49:37;;;;;;;5.77;5.20;;;28.00;61.60;;;;;;4941679;28;20477;-71
2022/06/23 10:52:23;;;;;;;5.70;5.20;;;28.10;61.60;;;;;;4942184;28;20434;-71
2022/06/23 10:55:28;;;;;;;6.03;5.43;;;28.10;61.60;;;;;;4974711;28;20414;-71
2022/06/23 10:58:12;;;;;;;5.83;5.30;;;28.10;61.50;;;;;;4961238;28;20522;-71
2022/06/23 11:00:57;;;;;;;6.83;4.60;;;28.20;61.40;;;;;;4941480;28;20394;-71
2022/06/23 11:03:47;;;;;;;5.77;5.37;;;28.20;61.30;;;;;;4958199;28;20414;-71
2022/06/23 11:06:57;;;;;;;6.10;5.50;;;28.30;61.30;;;;;;4974816;28;20403;-71
2022/06/23 11:09:48;;;;;;;6.10;5.27;;;28.30;61.20;;;;;;4957176;28;20503;-71
2022/06/23 12:18:31;;;;;;;5.80;5.40;;;29.30;61.70;;;;;;6129231;23;20444;-71
2022/06/23 12:39:05;;;;;;;6.30;5.70;;;29.70;60.80;;;;;;6186513;23;20838;-68
2022/06/23 12:41:36;;;;;;;5.83;5.43;;;29.80;60.80;;;;;;6119234;23;20397;-68
2022/06/23 12:44:24;;;;;;;6.10;5.57;;;29.80;60.70;;;;;;6162048;23;20391;-68
2022/06/23 12:46:59;;;;;;;6.37;5.87;;;29.90;60.60;;;;;;6162097;23;20422;-68
2022/06/23 12:49:42;;;;;;;6.47;6.00;;;29.90;60.50;;;;;;6163827;23;20439;-68
2022/06/23 12:52:28;;;;;;;6.10;5.60;;;29.90;60.30;;;;;;6187220;23;20840;-69
2022/06/23 12:55:20;;;;;;;7.07;5.67;;;30.00;60.30;;;;;;6185348;23;20407;-68
2022/06/23 12:58:33;;;;;;;7.20;6.60;;;30.00;60.20;;;;;;6159643;23;20436;-68
2022/06/23 13:01:02;;;;;;;6.30;5.70;;;30.00;60.10;;;;;;6169815;23;20422;-70
2022/06/23 13:03:45;;;;;;;6.87;6.30;;;30.10;60.20;;;;;;6154418;23;20737;-70
2022/06/23 13:06:19;;;;;;;6.57;6.00;;;30.10;60.00;;;;;;6130376;23;20853;-71
2022/06/23 13:09:07;;;;;;;6.07;5.60;;;30.20;60.00;;;;;;6126476;23;20492;-71
2022/06/23 13:11:47;;;;;;;6.47;5.87;;;30.20;59.80;;;;;;6149854;23;20362;-71
2022/06/23 13:14:22;;;;;;;6.10;5.50;;;30.20;59.80;;;;;;6126780;23;20358;-71
2022/06/23 13:17:06;;;;;;;6.30;5.80;;;30.30;59.80;;;;;;6126472;23;20456;-70
2022/06/23 13:19:44;;;;;;;6.10;5.60;;;30.30;59.80;;;;;;6100360;23;20390;-70
2022/06/23 13:22:11;;;;;;;6.37;5.87;;;30.30;59.70;;;;;;6126615;23;20373;-70
2022/06/23 13:24:43;;;;;;;5.87;5.37;;;30.40;59.70;;;;;;6126580;23;20445;-70
2022/06/23 13:27:19;;;;;;;6.70;5.90;;;30.40;59.50;;;;;;6149265;23;20787;-71
2022/06/23 13:29:58;;;;;;;6.97;6.10;;;30.40;59.40;;;;;;6126326;23;20597;-70
2022/06/23 13:32:36;;;;;;;9.23;5.60;;;30.50;59.40;;;;;;6126261;23;20394;-70
2022/06/23 13:35:27;;;;;;;6.03;5.43;;;30.50;59.30;;;;;;6124807;23;20374;-70
2022/06/23 13:38:11;;;;;;;5.90;5.50;;;30.60;59.20;;;;;;6125970;23;20453;-71
2022/06/23 13:40:54;;;;;;;5.77;5.27;;;30.60;59.20;;;;;;6128067;23;20903;-70
2022/06/23 13:43:26;;;;;;;5.47;4.97;;;30.60;59.10;;;;;;6076915;23;20518;-70
2022/06/23 13:46:25;;;;;;;6.10;5.07;;;30.70;59.20;;;;;;6097396;23;20370;-70
2022/06/23 13:49:28;;;;;;;6.07;5.57;;;30.70;59.10;;;;;;6095399;23;20394;-71
2022/06/23 13:52:16;;;;;;;6.13;5.60;;;30.80;59.00;;;;;;6095689;23;20405;-70
2022/06/23 13:54:48;;;;;;;6.13;5.23;;;30.80;58.90;;;;;;6120127;23;20465;-70
2022/06/23 13:57:19;;;;;;;6.17;5.67;;;30.80;58.80;;;;;;6119605;23;20960;-71
2022/06/23 13:59:57;;;;;;;6.93;6.00;;;30.80;58.80;;;;;;6097035;23;20363;-71
2022/06/23 14:02:51;;;;;;;5.80;5.30;;;30.90;58.70;;;;;;6095595;23;20366;-70
2022/06/23 14:05:23;;;;;;;7.60;5.50;;;31.00;58.70;;;;;;6120182;23;20439;-70
2022/06/23 14:08:07;;;;;;;5.57;5.10;;;31.00;58.60;;;;;;6095634;23;20944;-70
2022/06/23 14:11:04;;;;;;;6.57;6.07;;;31.00;58.40;;;;;;6119505;23;20371;-71
2022/06/23 14:13:45;;;;;;;5.67;5.20;;;31.10;58.40;;;;;;6095223;23;20454;-70
2022/06/23 14:16:29;;;;;;;5.23;4.83;;;31.10;58.40;;;;;;6122482;23;20773;-70
2022/06/23 14:19:09;;;;;;;6.37;5.80;;;31.20;58.40;;;;;;6126024;23;20437;-71
2022/06/23 14:21:45;;;;;;;6.10;5.70;;;31.20;58.30;;;;;;6126038;23;20749;-71
2022/06/23 14:24:24;;;;;;;7.90;5.63;;;31.20;58.30;;;;;;6124255;23;20397;-72
2022/06/23 14:27:20;;;;;;;6.10;5.60;;;31.30;58.20;;;;;;6125471;23;20410;-71
2022/06/23 14:30:01;;;;;;;6.43;5.27;;;31.30;58.10;;;;;;6103396;23;20444;-71
2022/06/23 14:32:47;;;;;;;7.03;5.67;;;31.40;58.10;;;;;;6126046;23;20457;-70
2022/06/23 14:35:13;;;;;;;5.63;5.20;;;31.40;58.00;;;;;;6124393;23;20394;-71
2022/06/23 14:38:04;;;;;;;5.97;5.40;;;31.40;58.00;;;;;;6124346;23;20763;-72
2022/06/23 14:40:59;;;;;;;6.03;5.43;;;31.50;58.10;;;;;;6123669;23;20413;-71
2022/06/23 14:43:56;;;;;;;7.30;5.80;;;31.50;58.00;;;;;;6113397;23;20422;-72
2022/06/23 14:46:52;;;;;;;6.10;5.23;;;31.50;58.00;;;;;;6119490;23;20406;-72
2022/06/23 14:49:27;;;;;;;5.23;4.93;;;31.60;58.00;;;;;;6096251;23;20968;-72
2022/06/23 14:52:36;;;;;;;5.33;4.90;;;31.60;57.90;;;;;;6119402;23;20363;-72
2022/06/23 14:55:13;;;;;;;5.43;5.03;;;31.70;57.90;;;;;;6094842;23;20419;-72
2022/06/23 14:57:40;;;;;;;5.70;5.30;;;31.70;57.80;;;;;;6119717;23;20432;-72
2022/06/23 15:00:23;;;;;;;5.40;4.90;;;31.80;57.90;;;;;;6120060;23;20390;-72
2022/06/23 15:02:57;;;;;;;5.40;4.90;;;31.80;57.80;;;;;;6094822;23;20395;-72
2022/06/23 15:06:02;;;;;;;6.87;4.70;;;31.80;57.70;;;;;;6119574;23;20704;-72
2022/06/23 15:08:51;;;;;;;5.20;4.80;;;31.90;57.80;;;;;;6072204;23;20413;-72
2022/06/23 15:11:32;;;;;;;5.97;5.37;;;31.90;57.80;;;;;;6095380;23;20390;-72
2022/06/23 15:14:29;;;;;;;5.60;5.20;;;32.00;57.80;;;;;;6097072;23;20498;-72
2022/06/23 15:17:09;;;;;;;5.60;5.10;;;32.00;57.60;;;;;;6119800;23;20434;-72
2022/06/23 15:19:52;;;;;;;5.70;5.03;;;32.10;57.60;;;;;;6095617;23;20387;-72
2022/06/23 15:25:59;;;;;;;6.07;5.57;;;32.20;57.50;;;;;;6096686;23;21176;-72
2022/06/23 15:28:40;;;;;;;5.40;4.93;;;32.20;57.40;;;;;;6119570;23;20415;-75
2022/06/23 15:31:35;;;;;;;5.37;5.00;;;32.20;57.30;;;;;;6071466;23;20415;-74
2022/06/23 15:34:20;;;;;;;6.07;5.47;;;32.30;57.40;;;;;;6096335;23;20462;-71
2022/06/23 15:37:04;;;;;;;5.70;4.93;;;32.30;57.10;;;;;;6118620;23;20489;-71
2022/06/23 15:39:50;;;;;;;4.73;4.33;;;32.40;57.00;;;;;;6118509;23;20375;-71